sensor_id;sensor_type;location;lat;lon;timestamp;pressure;altitude;pressure_sealevel;temperature;humidity
33185;BME280;19550;42.872;25.494;2023-04-26T00:00:29;95454.13;;;9.94;100.00
33185;BME280;19550;42.872;25.494;2023-04-26T00:02:57;95454.72;;;10.00;100.00
33185;BME280;19550;42.872;25.494;2023-04-26T00:05:25;95450.81;;;10.01;100.00
33185;BME280;19550;42.872;25.494;2023-04-26T00:07:52;95450.00;;;10.00;100.00
33185;BME280;19550;42.872;25.494;2023-04-26T00:10:20;95451.03;;;9.95;100.00
33185;BME280;19550;42.872;25.494;2023-04-26T00:12:47;95433.63;;;9.95;100.00
33185;BME280;19550;42.872;25.494;2023-04-26T00:15:14;95441.91;;;9.95;100.00
33185;BME280;19550;42.872;25.494;2023-04-26T00:17:41;95435.56;;;9.94;100.00
33185;BME280;19550;42.872;25.494;2023-04-26T00:20:09;95440.28;;;9.94;100.00
33185;BME280;19550;42.872;25.494;2023-04-26T00:22:37;95436.16;;;10.00;100.00
33185;BME280;19550;42.872;25.494;2023-04-26T00:25:05;95422.31;;;10.00;100.00
33185;BME280;19550;42.872;25.494;2023-04-26T00:27:33;95420.84;;;10.03;100.00
33185;BME280;19550;42.872;25.494;2023-04-26T00:30:00;95421.25;;;9.92;100.00
33185;BME280;19550;42.872;25.494;2023-04-26T00:32:27;95422.53;;;9.95;100.00
33185;BME280;19550;42.872;25.494;2023-04-26T00:34:54;95420.38;;;10.01;100.00
33185;BME280;19550;42.872;25.494;2023-04-26T00:37:20;95419.06;;;9.98;100.00
33185;BME280;19550;42.872;25.494;2023-04-26T00:39:47;95422.41;;;9.91;100.00
33185;BME280;19550;42.872;25.494;2023-04-26T00:42:14;95412.50;;;9.90;100.00
33185;BME280;19550;42.872;25.494;2023-04-26T00:44:42;95419.63;;;9.91;100.00
33185;BME280;19550;42.872;25.494;2023-04-26T00:47:09;95408.56;;;9.91;100.00
33185;BME280;19550;42.872;25.494;2023-04-26T00:49:36;95410.19;;;9.92;100.00
33185;BME280;19550;42.872;25.494;2023-04-26T00:52:03;95419.19;;;9.89;100.00
33185;BME280;19550;42.872;25.494;2023-04-26T00:54:30;95409.59;;;9.87;100.00
33185;BME280;19550;42.872;25.494;2023-04-26T00:56:57;95409.81;;;9.82;100.00
33185;BME280;19550;42.872;25.494;2023-04-26T00:59:25;95405.75;;;9.79;100.00
33185;BME280;19550;42.872;25.494;2023-04-26T01:01:54;95408.78;;;9.86;100.00
33185;BME280;19550;42.872;25.494;2023-04-26T01:04:21;95407.38;;;9.80;100.00
33185;BME280;19550;42.872;25.494;2023-04-26T01:06:51;95398.84;;;9.85;100.00
33185;BME280;19550;42.872;25.494;2023-04-26T01:09:18;95403.47;;;9.81;100.00
33185;BME280;19550;42.872;25.494;2023-04-26T01:11:45;95399.19;;;9.84;100.00
33185;BME280;19550;42.872;25.494;2023-04-26T01:14:14;95406.72;;;9.83;100.00
33185;BME280;19550;42.872;25.494;2023-04-26T01:16:41;95398.84;;;9.85;100.00
33185;BME280;19550;42.872;25.494;2023-04-26T01:19:12;95407.50;;;9.84;100.00
33185;BME280;19550;42.872;25.494;2023-04-26T01:21:39;95402.84;;;9.96;100.00
33185;BME280;19550;42.872;25.494;2023-04-26T01:24:10;95398.78;;;9.94;100.00
33185;BME280;19550;42.872;25.494;2023-04-26T01:26:37;95391.69;;;9.84;100.00
33185;BME280;19550;42.872;25.494;2023-04-26T01:29:13;95403.13;;;9.83;100.00
33185;BME280;19550;42.872;25.494;2023-04-26T01:31:40;95393.28;;;9.73;100.00
33185;BME280;19550;42.872;25.494;2023-04-26T01:34:07;95395.38;;;9.76;100.00
33185;BME280;19550;42.872;25.494;2023-04-26T01:36:34;95396.75;;;9.70;100.00
33185;BME280;19550;42.872;25.494;2023-04-26T01:39:01;95392.13;;;9.74;100.00
33185;BME280;19550;42.872;25.494;2023-04-26T01:41:30;95385.66;;;9.70;100.00
33185;BME280;19550;42.872;25.494;2023-04-26T01:43:58;95377.41;;;9.82;100.00
33185;BME280;19550;42.872;25.494;2023-04-26T01:46:24;95382.47;;;9.80;100.00
33185;BME280;19550;42.872;25.494;2023-04-26T01:48:51;95373.34;;;9.80;100.00
33185;BME280;19550;42.872;25.494;2023-04-26T01:51:18;95371.75;;;9.91;100.00
33185;BME280;19550;42.872;25.494;2023-04-26T01:53:46;95367.25;;;9.86;100.00
33185;BME280;19550;42.872;25.494;2023-04-26T01:56:12;95365.97;;;9.84;100.00
33185;BME280;19550;42.872;25.494;2023-04-26T01:58:41;95362.44;;;9.83;100.00
33185;BME280;19550;42.872;25.494;2023-04-26T02:01:08;95356.75;;;9.80;100.00
33185;BME280;19550;42.872;25.494;2023-04-26T02:03:35;95350.81;;;9.90;100.00
33185;BME280;19550;42.872;25.494;2023-04-26T02:06:02;95345.13;;;9.86;100.00
33185;BME280;19550;42.872;25.494;2023-04-26T02:08:29;95337.03;;;9.81;100.00
33185;BME280;19550;42.872;25.494;2023-04-26T02:10:56;95345.59;;;9.88;100.00
33185;BME280;19550;42.872;25.494;2023-04-26T02:13:23;95347.88;;;9.86;100.00
33185;BME280;19550;42.872;25.494;2023-04-26T02:15:52;95338.41;;;9.75;100.00
33185;BME280;19550;42.872;25.494;2023-04-26T02:18:19;95334.69;;;9.71;100.00
33185;BME280;19550;42.872;25.494;2023-04-26T02:20:47;95341.84;;;9.72;100.00
33185;BME280;19550;42.872;25.494;2023-04-26T02:23:13;95339.84;;;9.61;100.00
33185;BME280;19550;42.872;25.494;2023-04-26T02:25:41;95337.97;;;9.52;100.00
33185;BME280;19550;42.872;25.494;2023-04-26T02:28:08;95334.84;;;9.42;100.00
33185;BME280;19550;42.872;25.494;2023-04-26T02:30:35;95342.81;;;9.43;100.00
33185;BME280;19550;42.872;25.494;2023-04-26T02:33:03;95339.56;;;9.41;100.00
33185;BME280;19550;42.872;25.494;2023-04-26T02:35:30;95335.66;;;9.42;100.00
33185;BME280;19550;42.872;25.494;2023-04-26T02:37:57;95345.19;;;9.45;100.00
33185;BME280;19550;42.872;25.494;2023-04-26T02:40:23;95349.31;;;9.39;100.00
33185;BME280;19550;42.872;25.494;2023-04-26T02:42:50;95344.94;;;9.38;100.00
33185;BME280;19550;42.872;25.494;2023-04-26T02:45:17;95339.69;;;9.24;100.00
33185;BME280;19550;42.872;25.494;2023-04-26T02:47:44;95346.50;;;9.27;100.00
33185;BME280;19550;42.872;25.494;2023-04-26T02:50:12;95347.09;;;9.32;100.00
33185;BME280;19550;42.872;25.494;2023-04-26T02:52:39;95348.59;;;9.30;100.00
33185;BME280;19550;42.872;25.494;2023-04-26T02:55:07;95339.69;;;9.24;100.00
33185;BME280;19550;42.872;25.494;2023-04-26T02:57:34;95345.44;;;9.19;100.00
33185;BME280;19550;42.872;25.494;2023-04-26T03:00:01;95344.16;;;9.16;100.00
33185;BME280;19550;42.872;25.494;2023-04-26T03:02:29;95340.72;;;9.20;100.00
33185;BME280;19550;42.872;25.494;2023-04-26T03:04:56;95345.75;;;9.17;100.00
33185;BME280;19550;42.872;25.494;2023-04-26T03:07:24;95349.22;;;9.14;100.00
33185;BME280;19550;42.872;25.494;2023-04-26T03:09:51;95354.94;;;9.09;100.00
33185;BME280;19550;42.872;25.494;2023-04-26T03:12:18;95358.38;;;9.06;100.00
33185;BME280;19550;42.872;25.494;2023-04-26T03:14:45;95356.56;;;9.10;100.00
33185;BME280;19550;42.872;25.494;2023-04-26T03:17:12;95362.44;;;9.09;100.00
33185;BME280;19550;42.872;25.494;2023-04-26T03:19:39;95363.69;;;9.11;100.00
33185;BME280;19550;42.872;25.494;2023-04-26T03:22:06;95362.63;;;9.04;100.00
33185;BME280;19550;42.872;25.494;2023-04-26T03:24:34;95370.41;;;9.10;100.00
33185;BME280;19550;42.872;25.494;2023-04-26T03:27:01;95378.47;;;9.15;100.00
33185;BME280;19550;42.872;25.494;2023-04-26T03:29:28;95381.56;;;9.14;100.00
33185;BME280;19550;42.872;25.494;2023-04-26T03:31:55;95374.69;;;9.20;100.00
33185;BME280;19550;42.872;25.494;2023-04-26T03:34:22;95380.00;;;9.25;100.00
33185;BME280;19550;42.872;25.494;2023-04-26T03:36:49;95382.13;;;9.28;100.00
33185;BME280;19550;42.872;25.494;2023-04-26T03:39:15;95389.81;;;9.23;100.00
33185;BME280;19550;42.872;25.494;2023-04-26T03:41:44;95391.97;;;9.17;100.00
33185;BME280;19550;42.872;25.494;2023-04-26T03:44:10;95385.97;;;9.15;100.00
33185;BME280;19550;42.872;25.494;2023-04-26T03:46:38;95396.88;;;9.11;100.00
33185;BME280;19550;42.872;25.494;2023-04-26T03:49:05;95404.50;;;9.14;100.00
33185;BME280;19550;42.872;25.494;2023-04-26T03:51:32;95408.28;;;9.10;100.00
33185;BME280;19550;42.872;25.494;2023-04-26T03:53:59;95408.19;;;9.18;100.00
33185;BME280;19550;42.872;25.494;2023-04-26T03:56:25;95403.16;;;9.21;100.00
33185;BME280;19550;42.872;25.494;2023-04-26T03:58:54;95409.91;;;9.32;100.00
33185;BME280;19550;42.872;25.494;2023-04-26T04:01:21;95394.72;;;9.38;100.00
33185;BME280;19550;42.872;25.494;2023-04-26T04:03:48;95402.28;;;9.29;100.00
33185;BME280;19550;42.872;25.494;2023-04-26T04:06:15;95395.94;;;9.28;100.00
33185;BME280;19550;42.872;25.494;2023-04-26T04:08:42;95403.22;;;9.33;100.00
33185;BME280;19550;42.872;25.494;2023-04-26T04:11:09;95403.69;;;9.35;100.00
33185;BME280;19550;42.872;25.494;2023-04-26T04:13:36;95411.19;;;9.34;100.00
33185;BME280;19550;42.872;25.494;2023-04-26T04:16:04;95419.59;;;9.38;100.00
33185;BME280;19550;42.872;25.494;2023-04-26T04:18:34;95425.78;;;9.43;100.00
33185;BME280;19550;42.872;25.494;2023-04-26T04:21:01;95415.97;;;9.46;100.00
33185;BME280;19550;42.872;25.494;2023-04-26T04:23:28;95408.75;;;9.53;100.00
33185;BME280;19550;42.872;25.494;2023-04-26T04:25:55;95427.56;;;9.60;100.00
33185;BME280;19550;42.872;25.494;2023-04-26T04:28:22;95426.91;;;9.63;100.00
33185;BME280;19550;42.872;25.494;2023-04-26T04:30:48;95428.97;;;9.66;100.00
33185;BME280;19550;42.872;25.494;2023-04-26T04:33:17;95432.72;;;9.70;100.00
33185;BME280;19550;42.872;25.494;2023-04-26T04:35:44;95438.69;;;9.72;100.00
33185;BME280;19550;42.872;25.494;2023-04-26T04:38:11;95436.19;;;9.79;100.00
33185;BME280;19550;42.872;25.494;2023-04-26T04:40:38;95430.59;;;9.67;100.00
33185;BME280;19550;42.872;25.494;2023-04-26T04:43:05;95433.16;;;9.72;100.00
33185;BME280;19550;42.872;25.494;2023-04-26T04:45:32;95428.84;;;9.83;100.00
33185;BME280;19550;42.872;25.494;2023-04-26T04:47:59;95421.94;;;9.89;100.00
33185;BME280;19550;42.872;25.494;2023-04-26T04:50:30;95410.19;;;9.92;100.00
33185;BME280;19550;42.872;25.494;2023-04-26T04:52:57;95419.22;;;10.02;100.00
33185;BME280;19550;42.872;25.494;2023-04-26T04:55:24;95416.56;;;10.05;100.00
33185;BME280;19550;42.872;25.494;2023-04-26T04:57:51;95404.31;;;10.27;100.00
33185;BME280;19550;42.872;25.494;2023-04-26T05:00:19;95413.13;;;10.41;100.00
33185;BME280;19550;42.872;25.494;2023-04-26T05:02:45;95413.13;;;10.53;100.00
33185;BME280;19550;42.872;25.494;2023-04-26T05:05:12;95402.63;;;10.59;100.00
33185;BME280;19550;42.872;25.494;2023-04-26T05:07:41;95402.19;;;10.69;100.00
33185;BME280;19550;42.872;25.494;2023-04-26T05:10:08;95404.47;;;10.79;100.00
33185;BME280;19550;42.872;25.494;2023-04-26T05:12:35;95405.53;;;10.87;100.00
33185;BME280;19550;42.872;25.494;2023-04-26T05:15:03;95399.38;;;11.05;100.00
33185;BME280;19550;42.872;25.494;2023-04-26T05:17:30;95392.78;;;11.22;100.00
33185;BME280;19550;42.872;25.494;2023-04-26T05:19:58;95395.97;;;11.48;100.00
33185;BME280;19550;42.872;25.494;2023-04-26T05:22:28;95393.84;;;11.57;100.00
33185;BME280;19550;42.872;25.494;2023-04-26T05:24:56;95400.47;;;11.53;100.00
33185;BME280;19550;42.872;25.494;2023-04-26T05:27:23;95388.66;;;11.56;100.00
33185;BME280;19550;42.872;25.494;2023-04-26T05:29:51;95394.09;;;11.52;100.00
33185;BME280;19550;42.872;25.494;2023-04-26T05:32:17;95396.63;;;11.57;100.00
33185;BME280;19550;42.872;25.494;2023-04-26T05:34:44;95390.94;;;11.66;100.00
33185;BME280;19550;42.872;25.494;2023-04-26T05:37:11;95403.41;;;11.72;100.00
33185;BME280;19550;42.872;25.494;2023-04-26T05:39:38;95396.03;;;11.76;100.00
33185;BME280;19550;42.872;25.494;2023-04-26T05:42:06;95403.53;;;11.76;100.00
33185;BME280;19550;42.872;25.494;2023-04-26T05:44:33;95399.00;;;11.71;100.00
33185;BME280;19550;42.872;25.494;2023-04-26T05:47:00;95401.94;;;11.75;100.00
33185;BME280;19550;42.872;25.494;2023-04-26T05:49:27;95400.06;;;11.79;100.00
33185;BME280;19550;42.872;25.494;2023-04-26T05:51:53;95397.00;;;11.96;100.00
33185;BME280;19550;42.872;25.494;2023-04-26T05:54:20;95388.75;;;12.00;100.00
33185;BME280;19550;42.872;25.494;2023-04-26T05:56:47;95392.59;;;11.95;100.00
33185;BME280;19550;42.872;25.494;2023-04-26T05:59:15;95397.06;;;12.00;100.00
33185;BME280;19550;42.872;25.494;2023-04-26T06:01:42;95397.06;;;12.27;100.00
33185;BME280;19550;42.872;25.494;2023-04-26T06:04:09;95401.84;;;12.43;100.00
33185;BME280;19550;42.872;25.494;2023-04-26T06:06:35;95409.91;;;12.48;100.00
33185;BME280;19550;42.872;25.494;2023-04-26T06:09:02;95397.88;;;12.59;100.00
33185;BME280;19550;42.872;25.494;2023-04-26T06:11:30;95409.19;;;12.66;100.00
33185;BME280;19550;42.872;25.494;2023-04-26T06:13:56;95401.56;;;12.79;100.00
33185;BME280;19550;42.872;25.494;2023-04-26T06:16:25;95398.16;;;13.01;100.00
33185;BME280;19550;42.872;25.494;2023-04-26T06:18:51;95401.59;;;13.30;100.00
33185;BME280;19550;42.872;25.494;2023-04-26T06:21:18;95406.97;;;13.54;100.00
33185;BME280;19550;42.872;25.494;2023-04-26T06:23:45;95408.50;;;13.71;99.88
33185;BME280;19550;42.872;25.494;2023-04-26T06:26:12;95403.38;;;13.53;94.56
33185;BME280;19550;42.872;25.494;2023-04-26T06:28:39;95400.72;;;13.61;93.16
33185;BME280;19550;42.872;25.494;2023-04-26T06:31:05;95407.63;;;13.67;93.66
33185;BME280;19550;42.872;25.494;2023-04-26T06:33:34;95408.00;;;13.84;91.82
33185;BME280;19550;42.872;25.494;2023-04-26T06:36:00;95400.75;;;13.80;87.85
33185;BME280;19550;42.872;25.494;2023-04-26T06:38:27;95405.66;;;13.67;88.98
33185;BME280;19550;42.872;25.494;2023-04-26T06:40:54;95416.28;;;13.81;91.14
33185;BME280;19550;42.872;25.494;2023-04-26T06:43:21;95416.66;;;13.99;87.13
33185;BME280;19550;42.872;25.494;2023-04-26T06:45:48;95412.91;;;13.91;86.11
33185;BME280;19550;42.872;25.494;2023-04-26T06:48:15;95419.00;;;13.97;88.23
33185;BME280;19550;42.872;25.494;2023-04-26T06:50:43;95416.00;;;14.05;84.40
33185;BME280;19550;42.872;25.494;2023-04-26T06:53:10;95408.44;;;14.25;84.77
33185;BME280;19550;42.872;25.494;2023-04-26T06:55:37;95411.69;;;14.08;89.32
33185;BME280;19550;42.872;25.494;2023-04-26T06:58:03;95415.28;;;13.89;83.44
33185;BME280;19550;42.872;25.494;2023-04-26T07:00:30;95421.34;;;13.95;87.60
33185;BME280;19550;42.872;25.494;2023-04-26T07:02:57;95415.03;;;13.98;82.45
33185;BME280;19550;42.872;25.494;2023-04-26T07:05:25;95407.31;;;14.29;82.28
33185;BME280;19550;42.872;25.494;2023-04-26T07:07:53;95415.69;;;14.10;82.47
33185;BME280;19550;42.872;25.494;2023-04-26T07:10:20;95409.31;;;14.29;83.86
33185;BME280;19550;42.872;25.494;2023-04-26T07:12:47;95423.97;;;14.26;82.82
33185;BME280;19550;42.872;25.494;2023-04-26T07:15:14;95421.56;;;14.44;81.64
33185;BME280;19550;42.872;25.494;2023-04-26T07:17:41;95419.25;;;14.68;81.19
33185;BME280;19550;42.872;25.494;2023-04-26T07:20:10;95412.72;;;14.84;79.23
33185;BME280;19550;42.872;25.494;2023-04-26T07:22:40;95412.19;;;14.75;78.27
33185;BME280;19550;42.872;25.494;2023-04-26T07:25:08;95409.31;;;14.71;79.60
33185;BME280;19550;42.872;25.494;2023-04-26T07:27:35;95417.91;;;14.82;79.64
33185;BME280;19550;42.872;25.494;2023-04-26T07:30:02;95417.75;;;14.97;78.34
33185;BME280;19550;42.872;25.494;2023-04-26T07:32:30;95415.16;;;14.85;76.35
33185;BME280;19550;42.872;25.494;2023-04-26T07:34:57;95408.22;;;14.76;81.40
33185;BME280;19550;42.872;25.494;2023-04-26T07:37:23;95412.38;;;14.62;80.17
33185;BME280;19550;42.872;25.494;2023-04-26T07:39:50;95411.75;;;14.73;78.69
33185;BME280;19550;42.872;25.494;2023-04-26T07:42:18;95413.59;;;14.65;77.92
33185;BME280;19550;42.872;25.494;2023-04-26T07:44:46;95416.47;;;14.68;76.00
33185;BME280;19550;42.872;25.494;2023-04-26T07:47:13;95412.78;;;14.64;78.47
33185;BME280;19550;42.872;25.494;2023-04-26T07:49:40;95415.44;;;15.03;75.88
33185;BME280;19550;42.872;25.494;2023-04-26T07:52:07;95408.78;;;15.34;75.61
33185;BME280;19550;42.872;25.494;2023-04-26T07:54:34;95428.34;;;15.86;75.15
33185;BME280;19550;42.872;25.494;2023-04-26T07:57:01;95409.34;;;15.99;73.53
33185;BME280;19550;42.872;25.494;2023-04-26T07:59:30;95417.88;;;15.80;75.41
33185;BME280;19550;42.872;25.494;2023-04-26T08:01:57;95421.03;;;15.78;76.88
33185;BME280;19550;42.872;25.494;2023-04-26T08:04:30;95413.72;;;15.70;73.20
33185;BME280;19550;42.872;25.494;2023-04-26T08:06:58;95421.41;;;15.50;72.79
33185;BME280;19550;42.872;25.494;2023-04-26T08:09:26;95422.41;;;15.39;71.35
33185;BME280;19550;42.872;25.494;2023-04-26T08:11:53;95415.94;;;15.58;73.08
33185;BME280;19550;42.872;25.494;2023-04-26T08:14:20;95414.69;;;16.11;73.13
33185;BME280;19550;42.872;25.494;2023-04-26T08:16:48;95411.59;;;16.53;70.09
33185;BME280;19550;42.872;25.494;2023-04-26T08:19:15;95421.00;;;16.38;67.05
33185;BME280;19550;42.872;25.494;2023-04-26T08:21:42;95420.09;;;16.64;69.54
33185;BME280;19550;42.872;25.494;2023-04-26T08:24:09;95418.13;;;16.31;70.29
33185;BME280;19550;42.872;25.494;2023-04-26T08:26:36;95419.47;;;16.11;70.97
33185;BME280;19550;42.872;25.494;2023-04-26T08:29:02;95423.88;;;16.12;71.31
33185;BME280;19550;42.872;25.494;2023-04-26T08:31:29;95416.84;;;16.25;72.24
33185;BME280;19550;42.872;25.494;2023-04-26T08:33:57;95422.34;;;16.18;72.34
33185;BME280;19550;42.872;25.494;2023-04-26T08:36:24;95424.63;;;15.79;74.21
33185;BME280;19550;42.872;25.494;2023-04-26T08:38:52;95404.69;;;15.80;72.31
33185;BME280;19550;42.872;25.494;2023-04-26T08:41:21;95416.25;;;16.09;71.13
33185;BME280;19550;42.872;25.494;2023-04-26T08:43:49;95420.06;;;16.27;70.41
33185;BME280;19550;42.872;25.494;2023-04-26T08:46:18;95406.28;;;16.45;70.60
33185;BME280;19550;42.872;25.494;2023-04-26T08:48:53;95406.38;;;16.52;67.71
33185;BME280;19550;42.872;25.494;2023-04-26T08:51:24;95403.19;;;16.53;67.70
33185;BME280;19550;42.872;25.494;2023-04-26T08:53:52;95400.97;;;16.33;67.82
33185;BME280;19550;42.872;25.494;2023-04-26T08:56:21;95407.00;;;16.35;69.31
33185;BME280;19550;42.872;25.494;2023-04-26T08:58:48;95411.53;;;16.50;68.95
33185;BME280;19550;42.872;25.494;2023-04-26T09:01:17;95420.88;;;16.27;69.24
33185;BME280;19550;42.872;25.494;2023-04-26T09:03:46;95416.50;;;16.63;68.50
33185;BME280;19550;42.872;25.494;2023-04-26T09:06:13;95406.63;;;17.17;67.30
33185;BME280;19550;42.872;25.494;2023-04-26T09:08:43;95407.53;;;17.28;66.79
33185;BME280;19550;42.872;25.494;2023-04-26T09:11:10;95407.47;;;17.21;65.14
33185;BME280;19550;42.872;25.494;2023-04-26T09:13:37;95407.81;;;17.16;65.01
33185;BME280;19550;42.872;25.494;2023-04-26T09:16:04;95413.81;;;17.15;64.65
33185;BME280;19550;42.872;25.494;2023-04-26T09:18:31;95405.97;;;16.90;64.63
33185;BME280;19550;42.872;25.494;2023-04-26T09:21:03;95407.06;;;16.75;63.22
33185;BME280;19550;42.872;25.494;2023-04-26T09:23:30;95396.91;;;16.60;68.37
33185;BME280;19550;42.872;25.494;2023-04-26T09:26:16;95408.97;;;16.67;66.71
33185;BME280;19550;42.872;25.494;2023-04-26T09:28:43;95399.94;;;16.85;66.71
33185;BME280;19550;42.872;25.494;2023-04-26T09:31:10;95402.78;;;16.88;65.55
33185;BME280;19550;42.872;25.494;2023-04-26T09:33:57;95406.34;;;16.89;65.02
33185;BME280;19550;42.872;25.494;2023-04-26T09:36:24;95406.13;;;16.64;65.86
33185;BME280;19550;42.872;25.494;2023-04-26T09:38:51;95403.22;;;16.57;66.30
33185;BME280;19550;42.872;25.494;2023-04-26T09:41:20;95390.34;;;16.49;68.11
33185;BME280;19550;42.872;25.494;2023-04-26T09:43:48;95403.66;;;16.59;70.00
33185;BME280;19550;42.872;25.494;2023-04-26T09:46:21;95396.13;;;16.63;68.30
33185;BME280;19550;42.872;25.494;2023-04-26T09:48:59;95393.56;;;16.51;68.98
33185;BME280;19550;42.872;25.494;2023-04-26T09:51:27;95395.63;;;16.94;70.89
33185;BME280;19550;42.872;25.494;2023-04-26T09:53:54;95402.94;;;17.09;67.75
33185;BME280;19550;42.872;25.494;2023-04-26T09:56:22;95404.13;;;17.05;66.12
33185;BME280;19550;42.872;25.494;2023-04-26T09:58:57;95402.97;;;16.69;66.34
33185;BME280;19550;42.872;25.494;2023-04-26T10:01:25;95407.53;;;16.47;68.03
33185;BME280;19550;42.872;25.494;2023-04-26T10:03:54;95393.31;;;16.63;67.17
33185;BME280;19550;42.872;25.494;2023-04-26T10:06:22;95401.47;;;16.79;64.91
33185;BME280;19550;42.872;25.494;2023-04-26T10:08:49;95402.28;;;16.79;65.58
33185;BME280;19550;42.872;25.494;2023-04-26T10:11:17;95403.25;;;16.97;64.69
33185;BME280;19550;42.872;25.494;2023-04-26T10:13:45;95408.09;;;17.00;63.73
33185;BME280;19550;42.872;25.494;2023-04-26T10:16:12;95396.31;;;16.84;64.60
33185;BME280;19550;42.872;25.494;2023-04-26T10:18:39;95413.53;;;16.49;61.22
33185;BME280;19550;42.872;25.494;2023-04-26T10:21:09;95396.34;;;16.51;61.67
33185;BME280;19550;42.872;25.494;2023-04-26T10:23:39;95405.53;;;16.48;61.11
33185;BME280;19550;42.872;25.494;2023-04-26T10:26:06;95403.47;;;16.41;60.14
33185;BME280;19550;42.872;25.494;2023-04-26T10:28:56;95405.78;;;16.36;61.04
33185;BME280;19550;42.872;25.494;2023-04-26T10:31:23;95405.75;;;16.32;60.93
33185;BME280;19550;42.872;25.494;2023-04-26T10:37:08;95409.63;;;15.90;60.80
33185;BME280;19550;42.872;25.494;2023-04-26T10:39:35;95403.16;;;16.16;61.47
33185;BME280;19550;42.872;25.494;2023-04-26T10:42:19;95404.41;;;16.22;61.65
33185;BME280;19550;42.872;25.494;2023-04-26T10:44:50;95401.56;;;16.15;62.36
33185;BME280;19550;42.872;25.494;2023-04-26T10:47:28;95402.69;;;16.11;59.68
33185;BME280;19550;42.872;25.494;2023-04-26T10:50:03;95403.75;;;16.33;62.63
33185;BME280;19550;42.872;25.494;2023-04-26T10:52:31;95395.09;;;16.45;62.66
33185;BME280;19550;42.872;25.494;2023-04-26T10:54:58;95396.84;;;16.23;60.28
33185;BME280;19550;42.872;25.494;2023-04-26T10:57:47;95385.88;;;16.41;61.77
33185;BME280;19550;42.872;25.494;2023-04-26T11:00:29;95385.06;;;16.40;60.66
33185;BME280;19550;42.872;25.494;2023-04-26T11:02:58;95385.19;;;16.17;59.26
33185;BME280;19550;42.872;25.494;2023-04-26T11:05:36;95394.47;;;16.25;61.53
33185;BME280;19550;42.872;25.494;2023-04-26T11:08:07;95387.91;;;16.10;60.23
33185;BME280;19550;42.872;25.494;2023-04-26T11:10:36;95402.28;;;16.09;61.17
33185;BME280;19550;42.872;25.494;2023-04-26T11:13:04;95400.34;;;16.16;59.27
33185;BME280;19550;42.872;25.494;2023-04-26T11:15:33;95401.47;;;16.08;60.79
33185;BME280;19550;42.872;25.494;2023-04-26T11:18:01;95407.00;;;16.05;58.99
33185;BME280;19550;42.872;25.494;2023-04-26T11:20:29;95401.50;;;16.12;59.51
33185;BME280;19550;42.872;25.494;2023-04-26T11:22:57;95402.94;;;15.99;60.93
33185;BME280;19550;42.872;25.494;2023-04-26T11:25:24;95399.44;;;16.05;62.02
33185;BME280;19550;42.872;25.494;2023-04-26T11:27:57;95397.19;;;16.18;61.53
33185;BME280;19550;42.872;25.494;2023-04-26T11:30:24;95407.31;;;16.29;59.24
33185;BME280;19550;42.872;25.494;2023-04-26T11:32:52;95400.69;;;16.45;60.52
33185;BME280;19550;42.872;25.494;2023-04-26T11:35:20;95406.28;;;16.45;61.01
33185;BME280;19550;42.872;25.494;2023-04-26T11:37:47;95402.31;;;16.46;61.42
33185;BME280;19550;42.872;25.494;2023-04-26T11:40:16;95397.47;;;16.43;60.34
33185;BME280;19550;42.872;25.494;2023-04-26T11:42:43;95395.44;;;16.73;61.51
33185;BME280;19550;42.872;25.494;2023-04-26T11:45:10;95401.84;;;16.77;59.81
33185;BME280;19550;42.872;25.494;2023-04-26T11:47:38;95405.44;;;16.74;60.15
33185;BME280;19550;42.872;25.494;2023-04-26T11:50:08;95407.47;;;16.44;60.61
33185;BME280;19550;42.872;25.494;2023-04-26T11:52:35;95407.28;;;16.26;60.67
33185;BME280;19550;42.872;25.494;2023-04-26T11:55:04;95405.19;;;16.19;62.09
33185;BME280;19550;42.872;25.494;2023-04-26T11:57:33;95415.19;;;16.20;63.07
33185;BME280;19550;42.872;25.494;2023-04-26T12:00:11;95408.34;;;16.14;62.18
33185;BME280;19550;42.872;25.494;2023-04-26T12:02:39;95411.53;;;16.16;62.49
33185;BME280;19550;42.872;25.494;2023-04-26T12:05:08;95414.41;;;16.23;61.05
33185;BME280;19550;42.872;25.494;2023-04-26T12:07:36;95407.16;;;16.52;62.26
33185;BME280;19550;42.872;25.494;2023-04-26T12:10:13;95403.81;;;16.73;61.66
33185;BME280;19550;42.872;25.494;2023-04-26T12:12:46;95412.78;;;16.56;57.95
33185;BME280;19550;42.872;25.494;2023-04-26T12:15:14;95415.81;;;16.74;58.76
33185;BME280;19550;42.872;25.494;2023-04-26T12:17:50;95408.63;;;16.76;57.50
33185;BME280;19550;42.872;25.494;2023-04-26T12:20:25;95405.47;;;16.78;55.41
33185;BME280;19550;42.872;25.494;2023-04-26T12:23:13;95413.72;;;17.04;56.65
33185;BME280;19550;42.872;25.494;2023-04-26T12:25:50;95405.31;;;17.04;55.52
33185;BME280;19550;42.872;25.494;2023-04-26T12:28:17;95408.78;;;16.90;56.24
33185;BME280;19550;42.872;25.494;2023-04-26T12:30:44;95416.22;;;16.42;57.78
33185;BME280;19550;42.872;25.494;2023-04-26T12:33:12;95415.41;;;16.38;56.97
33185;BME280;19550;42.872;25.494;2023-04-26T12:35:40;95414.09;;;16.28;56.63
33185;BME280;19550;42.872;25.494;2023-04-26T12:38:07;95413.41;;;16.39;59.21
33185;BME280;19550;42.872;25.494;2023-04-26T12:40:35;95411.59;;;16.53;57.76
33185;BME280;19550;42.872;25.494;2023-04-26T12:43:02;95410.00;;;16.56;57.28
33185;BME280;19550;42.872;25.494;2023-04-26T12:45:28;95412.66;;;16.75;56.02
33185;BME280;19550;42.872;25.494;2023-04-26T12:47:55;95408.22;;;17.18;54.87
33185;BME280;19550;42.872;25.494;2023-04-26T12:50:22;95408.97;;;17.08;53.23
33185;BME280;19550;42.872;25.494;2023-04-26T12:52:50;95407.41;;;17.14;57.63
33185;BME280;19550;42.872;25.494;2023-04-26T12:55:17;95409.53;;;17.31;55.58